Time;durP1;ratioP1;P1;durP2;ratioP2;P2;SDS_P1;SDS_P2;PMS_P1;PMS_P2;Temp;Humidity;BMP_temperature;BMP_pressure;BME280_temperature;BME280_humidity;BME280_pressure;Samples;Min_cycle;Max_cycle;Signal;HPM_P1;HPM_P2
2022/09/12 00:01:20;;;;;;;4.25;1.25;;;22.90;96.70;;;;;;5044219;28;20121;-79
2022/09/12 00:03:51;;;;;;;5.28;1.60;;;23.00;96.70;;;;;;5042058;28;20095;-80
2022/09/12 00:06:22;;;;;;;4.28;1.60;;;23.10;96.70;;;;;;5036202;28;20048;-78
2022/09/12 00:08:54;;;;;;;8.60;1.83;;;23.20;96.70;;;;;;5037380;28;20040;-79
2022/09/12 00:11:23;;;;;;;5.60;1.30;;;23.20;96.70;;;;;;5038078;28;20053;-79
2022/09/12 00:13:54;;;;;;;3.17;1.20;;;23.30;96.70;;;;;;5040839;28;20060;-79
2022/09/12 00:16:23;;;;;;;3.25;1.40;;;23.50;96.70;;;;;;5040348;28;20562;-79
2022/09/12 00:18:52;;;;;;;4.90;1.45;;;23.40;96.70;;;;;;5042169;28;20041;-79
2022/09/12 00:21:22;;;;;;;4.70;1.50;;;23.30;96.70;;;;;;5030883;28;20060;-78
2022/09/12 00:23:51;;;;;;;5.32;1.38;;;23.20;96.70;;;;;;5044493;28;20037;-79
2022/09/12 00:26:20;;;;;;;4.68;1.85;;;23.20;96.70;;;;;;5040735;28;20060;-79
2022/09/12 00:28:49;;;;;;;2.60;0.93;;;23.20;96.70;;;;;;5042281;28;20048;-79
2022/09/12 00:31:18;;;;;;;3.60;1.33;;;23.20;96.70;;;;;;5040272;28;20041;-80
2022/09/12 00:33:47;;;;;;;4.00;1.63;;;23.00;96.70;;;;;;5047012;28;20049;-79
2022/09/12 00:36:18;;;;;;;5.10;1.65;;;22.90;96.70;;;;;;5044414;28;20036;-79
2022/09/12 00:38:47;;;;;;;6.25;1.30;;;22.90;96.70;;;;;;5044258;28;20077;-78
2022/09/12 00:41:19;;;;;;;6.28;1.52;;;22.80;96.70;;;;;;5046817;28;20045;-79
2022/09/12 00:43:49;;;;;;;4.03;1.17;;;22.80;96.70;;;;;;5036926;28;20060;-78
2022/09/12 00:46:28;;;;;;;4.53;1.10;;;22.90;96.70;;;;;;5047061;28;20128;-79
2022/09/12 00:48:59;;;;;;;3.80;1.30;;;23.00;96.70;;;;;;5039994;28;20047;-80
2022/09/12 00:51:29;;;;;;;6.35;1.42;;;22.80;96.70;;;;;;5043632;28;20044;-79
2022/09/12 00:53:59;;;;;;;3.03;0.93;;;22.70;96.70;;;;;;5034076;28;20053;-78
2022/09/12 00:56:29;;;;;;;4.18;1.15;;;22.80;96.70;;;;;;5046616;28;20431;-78
2022/09/12 00:59:01;;;;;;;1.98;0.80;;;22.90;96.70;;;;;;5045258;28;20531;-79
2022/09/12 01:01:30;;;;;;;4.15;1.10;;;22.80;96.70;;;;;;5046169;28;20592;-79
2022/09/12 01:04:00;;;;;;;5.60;1.17;;;22.60;96.70;;;;;;5045178;28;20087;-80
2022/09/12 01:06:34;;;;;;;6.28;0.90;;;22.60;96.70;;;;;;5028646;28;20048;-79
2022/09/12 01:09:03;;;;;;;5.32;1.20;;;22.60;96.70;;;;;;5038138;28;20056;-79
2022/09/12 01:11:35;;;;;;;4.30;1.08;;;22.70;96.70;;;;;;5043572;28;20049;-79
2022/09/12 01:14:05;;;;;;;4.10;1.08;;;22.50;96.70;;;;;;5029389;28;20686;-80
2022/09/12 01:16:35;;;;;;;5.18;0.93;;;22.50;96.70;;;;;;5043597;28;20065;-79
2022/09/12 01:19:21;;;;;;;4.38;1.00;;;22.30;96.70;;;;;;5045485;28;20049;-78
2022/09/12 01:22:03;;;;;;;2.80;0.80;;;22.30;96.70;;;;;;5044889;28;20499;-80
2022/09/12 01:24:52;;;;;;;2.38;0.55;;;22.40;96.70;;;;;;5045552;28;20049;-79
2022/09/12 01:27:49;;;;;;;3.45;0.95;;;22.50;96.70;;;;;;5042642;28;20081;-78
2022/09/12 01:30:21;;;;;;;;;;;22.40;96.70;;;;;;5044543;28;20057;-79
2022/09/12 01:33:17;;;;;;;6.63;1.33;;;22.40;96.70;;;;;;5044601;28;21385;-80
2022/09/12 01:35:55;;;;;;;4.15;0.98;;;22.30;96.70;;;;;;5036021;28;20103;-79
2022/09/12 01:38:31;;;;;;;4.78;1.30;;;22.40;96.70;;;;;;5044140;28;20049;-78
2022/09/12 01:41:08;;;;;;;4.22;1.35;;;22.40;96.70;;;;;;5043600;28;20045;-80
2022/09/12 01:43:46;;;;;;;2.97;0.90;;;22.40;96.70;;;;;;5044979;28;20765;-79
2022/09/12 01:46:20;;;;;;;3.67;1.25;;;22.40;96.70;;;;;;5044868;28;20141;-80
2022/09/12 01:48:56;;;;;;;3.80;1.23;;;22.30;96.70;;;;;;5044825;28;20576;-79
2022/09/12 01:51:28;;;;;;;3.93;1.23;;;22.30;96.70;;;;;;5039768;28;20163;-79
2022/09/12 01:54:02;;;;;;;2.45;0.85;;;22.30;96.70;;;;;;5028248;28;20299;-79
2022/09/12 01:56:33;;;;;;;5.05;1.17;;;22.30;96.70;;;;;;5046114;28;20420;-79
2022/09/12 01:59:07;;;;;;;5.05;1.50;;;22.20;96.70;;;;;;5043966;28;20139;-79
2022/09/12 02:01:46;;;;;;;4.70;1.20;;;22.20;96.70;;;;;;5042404;28;20053;-79
2022/09/12 02:04:17;;;;;;;2.88;0.90;;;22.30;96.70;;;;;;5044501;28;20048;-81
2022/09/12 02:06:51;;;;;;;3.95;1.27;;;22.20;96.70;;;;;;5042351;28;20124;-80
2022/09/12 02:09:23;;;;;;;4.10;1.15;;;22.20;96.70;;;;;;5045302;28;20049;-80
2022/09/12 02:11:56;;;;;;;2.58;1.02;;;22.20;96.70;;;;;;5041093;28;20468;-78
2022/09/12 02:14:28;;;;;;;4.40;1.50;;;22.00;96.70;;;;;;5042021;28;20120;-79
2022/09/12 02:17:01;;;;;;;3.17;0.70;;;22.00;96.70;;;;;;5024844;28;20159;-80
2022/09/12 02:19:35;;;;;;;6.38;1.02;;;22.00;96.70;;;;;;5037058;28;20613;-79
2022/09/12 02:22:05;;;;;;;3.85;0.88;;;22.00;96.70;;;;;;5044336;28;20100;-79
2022/09/12 02:24:38;;;;;;;3.95;1.00;;;22.10;96.70;;;;;;5043848;28;20045;-79
2022/09/12 02:27:11;;;;;;;5.35;1.63;;;21.90;96.70;;;;;;5044536;28;20079;-80
2022/09/12 02:29:39;;;;;;;3.85;0.70;;;21.90;96.70;;;;;;5043612;28;20048;-79
2022/09/12 02:32:17;;;;;;;2.70;0.82;;;22.00;96.70;;;;;;5037622;28;20049;-80
2022/09/12 02:34:49;;;;;;;2.40;0.70;;;22.00;96.70;;;;;;5038982;28;20053;-80
2022/09/12 02:37:24;;;;;;;5.07;0.88;;;22.00;96.70;;;;;;5043199;28;20418;-79
2022/09/12 02:39:54;;;;;;;13.60;1.15;;;22.00;96.70;;;;;;5042031;28;20044;-79
2022/09/12 02:42:23;;;;;;;3.17;0.90;;;22.00;96.70;;;;;;5044567;28;20041;-81
2022/09/12 02:44:54;;;;;;;4.72;1.33;;;22.00;96.70;;;;;;5044102;28;20116;-80
2022/09/12 02:47:30;;;;;;;3.90;1.02;;;22.00;96.70;;;;;;5041942;28;20037;-79
2022/09/12 02:49:59;;;;;;;4.38;0.80;;;21.90;96.70;;;;;;5043952;28;20048;-79
2022/09/12 02:52:28;;;;;;;4.93;1.27;;;21.70;96.70;;;;;;5042768;28;20076;-81
2022/09/12 02:54:57;;;;;;;5.15;1.10;;;21.80;96.70;;;;;;5034228;28;20045;-80
2022/09/12 02:57:25;;;;;;;4.70;1.30;;;21.70;96.70;;;;;;5043147;28;20090;-80
2022/09/12 02:59:58;;;;;;;4.25;1.00;;;21.70;96.70;;;;;;5044654;28;20041;-79
2022/09/12 03:02:40;;;;;;;2.65;0.98;;;21.70;96.70;;;;;;5042313;28;20049;-79
2022/09/12 03:05:23;;;;;;;2.35;0.80;;;21.70;96.70;;;;;;5042972;28;20052;-81
2022/09/12 03:08:37;;;;;;;5.07;1.30;;;21.70;96.70;;;;;;5042040;28;20040;-80
2022/09/12 03:11:41;;;;;;;3.65;1.05;;;21.60;96.70;;;;;;5019506;28;20060;-79
2022/09/12 03:14:20;;;;;;;3.75;1.05;;;21.70;96.70;;;;;;5015416;28;20049;-79
2022/09/12 03:16:56;;;;;;;3.53;1.25;;;21.70;96.70;;;;;;5036662;28;20107;-80
2022/09/12 03:19:34;;;;;;;3.03;0.85;;;21.70;96.70;;;;;;5042600;28;20064;-79
2022/09/12 03:22:12;;;;;;;2.15;0.90;;;21.60;96.70;;;;;;5040186;28;20566;-79
2022/09/12 03:24:47;;;;;;;3.10;1.02;;;21.70;96.70;;;;;;5042158;28;20045;-79
2022/09/12 03:27:18;;;;;;;2.55;0.77;;;21.60;96.70;;;;;;5040973;28;20037;-79
2022/09/12 03:29:47;;;;;;;2.28;0.85;;;21.60;96.70;;;;;;5038936;28;20049;-79
2022/09/12 03:32:15;;;;;;;1.65;0.60;;;21.50;96.70;;;;;;5036683;28;20044;-79
2022/09/12 03:34:45;;;;;;;2.88;1.10;;;21.40;96.70;;;;;;5023372;28;20055;-79
2022/09/12 03:37:13;;;;;;;3.42;1.05;;;21.40;96.70;;;;;;5057847;28;20045;-79
2022/09/12 03:39:41;;;;;;;2.42;0.90;;;21.50;96.70;;;;;;5044018;28;20036;-79
2022/09/12 03:42:09;;;;;;;2.63;0.75;;;21.60;96.70;;;;;;5039061;28;20049;-80
2022/09/12 03:44:38;;;;;;;3.00;0.70;;;21.60;96.70;;;;;;5043496;28;20037;-79
2022/09/12 03:47:06;;;;;;;2.33;0.65;;;21.60;96.70;;;;;;5040906;28;20433;-80
2022/09/12 03:49:38;;;;;;;5.22;1.20;;;21.50;96.70;;;;;;5041872;28;20511;-79
2022/09/12 03:52:07;;;;;;;3.60;0.80;;;21.50;96.70;;;;;;5042958;28;20063;-80
2022/09/12 03:54:35;;;;;;;5.53;1.00;;;21.60;96.70;;;;;;5040802;28;20098;-79
2022/09/12 03:57:04;;;;;;;4.22;1.00;;;21.60;96.70;;;;;;5042696;28;20056;-79
2022/09/12 03:59:32;;;;;;;4.38;0.68;;;21.50;96.70;;;;;;5039411;28;20037;-79
2022/09/12 04:02:00;;;;;;;1.73;0.52;;;21.50;96.70;;;;;;5024391;28;20044;-80
2022/09/12 04:04:29;;;;;;;2.42;0.60;;;21.50;96.70;;;;;;5041050;28;20132;-79
2022/09/12 04:06:57;;;;;;;5.90;0.93;;;21.50;96.70;;;;;;5042299;28;20102;-80
2022/09/12 04:09:27;;;;;;;3.55;0.90;;;21.40;96.70;;;;;;5041799;28;20470;-81
2022/09/12 04:11:55;;;;;;;3.80;0.95;;;21.40;96.70;;;;;;5037048;28;20068;-79
2022/09/12 04:14:23;;;;;;;2.28;0.77;;;21.40;96.70;;;;;;5041801;28;20106;-79
2022/09/12 04:16:51;;;;;;;2.45;0.50;;;21.40;96.70;;;;;;5019233;28;20522;-79
2022/09/12 04:19:20;;;;;;;3.30;0.90;;;21.40;96.70;;;;;;5040249;28;20051;-79
2022/09/12 04:21:48;;;;;;;2.72;0.65;;;21.40;96.70;;;;;;5041093;28;20132;-79
2022/09/12 04:24:16;;;;;;;1.95;0.70;;;21.40;96.70;;;;;;5039278;28;20139;-79
2022/09/12 04:26:46;;;;;;;3.33;0.85;;;21.40;96.70;;;;;;5042522;28;20041;-79
2022/09/12 04:29:14;;;;;;;4.72;1.20;;;21.30;96.70;;;;;;5041845;28;20049;-79
2022/09/12 04:31:42;;;;;;;4.72;1.00;;;21.20;96.70;;;;;;5036747;28;20122;-80
2022/09/12 04:34:11;;;;;;;4.18;0.98;;;21.20;96.70;;;;;;5036760;28;20099;-79
2022/09/12 04:36:39;;;;;;;3.10;0.63;;;21.20;96.70;;;;;;5039938;28;20068;-79
2022/09/12 04:39:07;;;;;;;4.50;0.80;;;21.10;96.70;;;;;;5040532;28;20088;-79
2022/09/12 04:41:37;;;;;;;3.83;0.82;;;21.10;96.70;;;;;;5040309;28;20064;-80
2022/09/12 04:44:09;;;;;;;2.38;0.70;;;21.10;96.70;;;;;;5037169;28;20053;-78
2022/09/12 04:46:39;;;;;;;3.67;0.70;;;21.10;96.70;;;;;;5041954;28;20127;-79
2022/09/12 04:49:08;;;;;;;2.20;0.60;;;21.20;96.70;;;;;;5053744;28;20051;-79
2022/09/12 04:51:38;;;;;;;2.78;0.93;;;21.20;96.70;;;;;;5018927;28;20136;-80
2022/09/12 04:54:08;;;;;;;6.15;1.02;;;21.10;96.70;;;;;;5041397;28;20048;-79
2022/09/12 04:56:38;;;;;;;4.40;1.20;;;21.10;96.70;;;;;;5041682;28;20099;-79
2022/09/12 04:59:09;;;;;;;1.73;0.70;;;21.10;96.70;;;;;;5038054;28;20148;-80
2022/09/12 05:01:37;;;;;;;4.82;1.25;;;21.10;96.70;;;;;;5033346;28;20065;-80
2022/09/12 05:04:05;;;;;;;6.03;1.35;;;21.10;96.70;;;;;;5042647;28;20122;-80
2022/09/12 05:06:35;;;;;;;3.72;0.80;;;21.10;96.70;;;;;;5044320;28;20045;-79
2022/09/12 05:09:05;;;;;;;5.10;0.85;;;21.10;96.70;;;;;;5039815;28;20120;-79
2022/09/12 05:11:36;;;;;;;4.60;1.15;;;21.10;96.70;;;;;;5042897;28;20064;-80
2022/09/12 05:14:27;;;;;;;3.35;1.00;;;21.00;96.70;;;;;;5031331;28;20564;-80
2022/09/12 05:16:59;;;;;;;3.67;0.75;;;20.90;96.70;;;;;;5045953;28;20037;-79
2022/09/12 05:19:29;;;;;;;6.15;1.02;;;20.80;96.70;;;;;;5037961;28;20556;-79
2022/09/12 05:21:57;;;;;;;3.30;0.73;;;20.90;96.70;;;;;;5056838;28;20056;-79
2022/09/12 05:24:26;;;;;;;6.32;1.20;;;20.90;96.70;;;;;;5045879;28;20152;-78
2022/09/12 05:26:54;;;;;;;4.40;1.30;;;20.80;96.70;;;;;;5040858;28;20045;-79
2022/09/12 05:29:24;;;;;;;2.95;1.00;;;20.80;96.70;;;;;;5041890;28;20593;-79
2022/09/12 05:31:53;;;;;;;2.47;1.10;;;20.90;96.70;;;;;;5043793;28;20068;-80
2022/09/12 05:34:22;;;;;;;2.40;0.90;;;20.90;96.70;;;;;;5039016;28;20148;-81
2022/09/12 05:36:50;;;;;;;2.28;0.95;;;20.90;96.70;;;;;;5043821;28;20548;-81
2022/09/12 05:39:18;;;;;;;4.28;0.90;;;21.00;96.70;;;;;;5043013;28;20052;-79
2022/09/12 05:41:46;;;;;;;4.32;1.15;;;21.10;96.70;;;;;;5043765;28;20049;-79
2022/09/12 05:44:15;;;;;;;3.47;1.10;;;21.00;96.70;;;;;;5046715;28;20045;-79
2022/09/12 05:46:50;;;;;;;5.18;1.05;;;20.90;96.70;;;;;;5043193;28;20398;-79
2022/09/12 05:49:20;;;;;;;4.32;1.20;;;21.00;96.70;;;;;;5037927;28;20107;-79
2022/09/12 05:51:49;;;;;;;5.38;1.23;;;21.00;96.70;;;;;;5041289;28;20091;-80
2022/09/12 05:54:19;;;;;;;4.72;1.40;;;21.00;96.70;;;;;;5045927;28;20044;-80
2022/09/12 05:56:47;;;;;;;5.07;1.33;;;21.10;96.70;;;;;;5021822;28;20057;-79
2022/09/12 05:59:17;;;;;;;4.82;1.40;;;21.10;96.70;;;;;;5041300;28;20053;-80
2022/09/12 06:01:47;;;;;;;8.02;1.83;;;21.10;96.70;;;;;;5039839;28;20036;-80
2022/09/12 06:04:15;;;;;;;2.83;1.35;;;21.20;96.70;;;;;;5034819;28;20061;-80
2022/09/12 06:06:46;;;;;;;6.32;1.77;;;21.20;96.70;;;;;;5041751;28;20126;-81
2022/09/12 06:09:15;;;;;;;4.18;1.58;;;21.30;96.70;;;;;;5043520;28;20048;-80
2022/09/12 06:11:44;;;;;;;5.63;1.40;;;21.10;96.70;;;;;;5042139;28;20047;-79
2022/09/12 06:14:14;;;;;;;6.25;1.67;;;21.30;96.70;;;;;;5043168;28;20143;-79
2022/09/12 06:16:43;;;;;;;5.03;1.33;;;21.20;96.70;;;;;;5034859;28;20056;-79
2022/09/12 06:19:16;;;;;;;5.28;1.52;;;21.30;96.70;;;;;;5040324;28;20392;-80
2022/09/12 06:21:48;;;;;;;3.67;1.27;;;21.40;96.70;;;;;;5044323;28;20083;-78
2022/09/12 06:24:17;;;;;;;4.70;1.70;;;21.40;96.70;;;;;;5041669;28;20048;-79
2022/09/12 06:26:46;;;;;;;4.65;1.35;;;21.40;96.70;;;;;;5043197;28;20439;-79
2022/09/12 06:29:15;;;;;;;4.07;1.50;;;21.40;96.70;;;;;;5041456;28;20510;-79
2022/09/12 06:31:44;;;;;;;3.20;1.50;;;21.50;96.70;;;;;;5024586;28;20041;-81
2022/09/12 06:34:14;;;;;;;5.18;1.30;;;21.50;96.70;;;;;;5040555;28;20144;-79
2022/09/12 06:36:46;;;;;;;5.28;1.65;;;21.60;96.70;;;;;;5038859;28;20068;-79
2022/09/12 06:39:16;;;;;;;3.58;1.58;;;21.70;96.70;;;;;;5036786;28;20632;-81
2022/09/12 06:41:44;;;;;;;6.32;2.13;;;21.60;96.70;;;;;;5043998;28;20049;-80
2022/09/12 06:44:14;;;;;;;5.25;1.70;;;21.60;96.70;;;;;;5040212;28;20037;-79
2022/09/12 06:46:43;;;;;;;4.82;1.70;;;21.50;96.70;;;;;;5043973;28;20055;-79
2022/09/12 06:49:11;;;;;;;5.43;1.80;;;21.60;96.70;;;;;;5039044;28;20475;-79
2022/09/12 06:51:42;;;;;;;4.03;1.65;;;21.70;96.70;;;;;;5045044;28;20044;-80
2022/09/12 06:54:15;;;;;;;5.88;1.90;;;21.60;96.70;;;;;;5039642;28;20523;-79
2022/09/12 06:56:44;;;;;;;6.18;1.85;;;21.60;96.70;;;;;;5045052;28;20041;-80
2022/09/12 06:59:12;;;;;;;6.43;1.77;;;21.70;96.70;;;;;;5038529;28;20041;-78
2022/09/12 07:01:40;;;;;;;3.17;1.50;;;21.80;96.70;;;;;;5042463;28;20057;-79
2022/09/12 07:04:09;;;;;;;3.28;1.30;;;21.80;96.70;;;;;;5041758;28;20049;-80
2022/09/12 07:06:39;;;;;;;4.10;1.50;;;21.90;96.70;;;;;;5042404;28;20049;-79
2022/09/12 07:09:10;;;;;;;3.25;1.60;;;22.00;96.70;;;;;;5042665;28;20052;-79
2022/09/12 07:11:41;;;;;;;3.22;1.30;;;22.10;96.70;;;;;;5044474;28;20051;-78
2022/09/12 07:14:12;;;;;;;3.95;1.77;;;22.10;96.70;;;;;;5043177;28;20051;-78
2022/09/12 07:16:41;;;;;;;6.25;1.98;;;22.20;96.70;;;;;;5043378;28;20090;-79
2022/09/12 07:19:10;;;;;;;4.20;1.73;;;22.40;96.70;;;;;;5038757;28;20041;-79
2022/09/12 07:21:39;;;;;;;7.18;1.98;;;22.50;96.70;;;;;;5042422;28;20122;-79
2022/09/12 07:24:09;;;;;;;5.22;1.50;;;22.60;96.70;;;;;;5039977;28;20387;-79
2022/09/12 07:26:40;;;;;;;5.78;1.70;;;22.60;96.70;;;;;;5039914;28;20075;-80
2022/09/12 07:29:14;;;;;;;5.32;1.63;;;22.70;96.70;;;;;;5042014;28;20049;-79
2022/09/12 07:32:04;;;;;;;5.13;1.65;;;22.70;96.70;;;;;;5043919;28;20128;-80
2022/09/12 07:34:34;;;;;;;4.80;1.77;;;22.70;96.70;;;;;;5046597;28;20041;-79
2022/09/12 07:37:03;;;;;;;5.57;1.80;;;22.70;96.70;;;;;;5042254;28;20040;-79
2022/09/12 07:39:31;;;;;;;4.47;1.70;;;22.80;96.70;;;;;;5037742;28;20507;-79
2022/09/12 07:42:01;;;;;;;3.50;1.52;;;22.80;96.70;;;;;;5043635;28;20041;-79
2022/09/12 07:44:29;;;;;;;5.40;1.92;;;22.80;96.70;;;;;;5044274;28;20071;-78
2022/09/12 07:46:57;;;;;;;7.93;1.70;;;22.80;96.70;;;;;;5037375;28;20053;-79
2022/09/12 07:49:26;;;;;;;3.25;1.48;;;22.90;96.70;;;;;;5041914;28;20045;-79
2022/09/12 07:51:54;;;;;;;4.18;1.88;;;23.00;96.70;;;;;;5041334;28;20529;-79
2022/09/12 07:54:23;;;;;;;3.70;1.70;;;23.00;96.70;;;;;;5042886;28;20136;-79
2022/09/12 07:56:51;;;;;;;3.95;1.83;;;23.10;96.70;;;;;;5036574;28;20122;-79
2022/09/12 07:59:23;;;;;;;4.53;1.52;;;23.20;96.70;;;;;;5040090;28;20128;-79
2022/09/12 08:02:14;;;;;;;4.88;1.67;;;23.30;96.70;;;;;;5037628;28;20485;-79
2022/09/12 08:04:46;;;;;;;3.97;1.30;;;23.30;96.70;;;;;;5041572;28;20049;-78
2022/09/12 08:07:16;;;;;;;2.97;1.35;;;23.30;96.70;;;;;;5042378;28;20052;-78
2022/09/12 08:09:45;;;;;;;4.78;1.30;;;23.30;96.70;;;;;;5040471;28;20819;-78
2022/09/12 08:12:14;;;;;;;3.35;1.38;;;23.30;96.70;;;;;;5041960;28;20080;-78
2022/09/12 08:14:44;;;;;;;5.00;1.55;;;23.40;96.70;;;;;;5041199;28;20041;-80
2022/09/12 08:17:13;;;;;;;5.78;1.60;;;23.60;96.70;;;;;;5038109;28;20064;-81
2022/09/12 08:19:41;;;;;;;4.10;1.40;;;23.60;96.70;;;;;;5022779;28;20041;-81
2022/09/12 08:22:10;;;;;;;4.55;1.50;;;23.60;96.70;;;;;;5042522;28;20041;-79
2022/09/12 08:24:38;;;;;;;3.70;1.10;;;23.60;96.70;;;;;;5038787;28;20059;-79
2022/09/12 08:27:07;;;;;;;5.20;1.50;;;23.60;96.70;;;;;;5056700;28;20124;-79
2022/09/12 08:29:35;;;;;;;4.60;1.45;;;23.80;96.70;;;;;;5039913;28;20037;-79
2022/09/12 08:32:05;;;;;;;4.18;1.33;;;23.80;96.70;;;;;;5043979;28;20045;-79
2022/09/12 08:34:33;;;;;;;5.43;1.20;;;23.80;96.70;;;;;;5040230;28;20051;-81
2022/09/12 08:37:02;;;;;;;4.40;1.40;;;23.80;96.70;;;;;;5036496;28;20044;-79
2022/09/12 08:39:32;;;;;;;4.53;1.33;;;23.90;96.70;;;;;;5040574;28;20052;-80
2022/09/12 08:42:02;;;;;;;5.85;1.33;;;24.00;96.70;;;;;;5046776;28;20041;-80
2022/09/12 08:44:58;;;;;;;5.43;1.55;;;24.00;96.70;;;;;;5045615;28;20150;-80
2022/09/12 08:47:31;;;;;;;3.35;0.93;;;24.20;96.70;;;;;;5045624;28;20045;-79
2022/09/12 08:50:05;;;;;;;3.58;1.17;;;24.30;96.70;;;;;;5044150;28;20094;-79
2022/09/12 08:52:41;;;;;;;6.15;1.45;;;24.40;96.70;;;;;;5044728;28;20042;-79
2022/09/12 08:55:26;;;;;;;4.05;1.50;;;24.40;96.70;;;;;;5037901;28;20049;-80
2022/09/12 08:57:54;;;;;;;2.83;1.50;;;24.50;96.70;;;;;;5042723;28;20675;-80
2022/09/12 09:00:25;;;;;;;4.65;1.63;;;24.50;96.70;;;;;;5044463;28;20037;-80
2022/09/12 09:03:24;;;;;;;2.95;1.33;;;24.50;96.70;;;;;;5044367;28;20568;-80
2022/09/12 09:06:01;;;;;;;5.22;1.52;;;24.50;96.70;;;;;;5044917;28;20137;-79
2022/09/12 09:08:46;;;;;;;3.63;1.10;;;24.60;96.70;;;;;;5045234;28;20049;-79
2022/09/12 09:11:38;;;;;;;5.40;1.13;;;24.60;96.70;;;;;;5045505;28;20048;-80
2022/09/12 09:17:22;;;;;;;6.35;1.40;;;24.70;96.70;;;;;;4985080;28;20054;-79
2022/09/12 09:19:58;;;;;;;7.10;1.38;;;24.90;96.70;;;;;;4994509;28;20050;-79
2022/09/12 09:22:37;;;;;;;4.78;1.25;;;25.00;96.70;;;;;;4976680;28;20063;-79
2022/09/12 09:25:12;;;;;;;2.53;0.90;;;25.20;96.70;;;;;;4977739;28;20096;-81
2022/09/12 09:27:45;;;;;;;2.58;1.35;;;25.40;96.70;;;;;;4994477;28;20052;-79
2022/09/12 09:30:15;;;;;;;2.42;1.17;;;25.50;96.70;;;;;;4997610;28;20050;-79
2022/09/12 09:32:46;;;;;;;3.60;1.70;;;25.50;96.70;;;;;;4991701;28;20065;-79
2022/09/12 09:35:20;;;;;;;4.28;1.15;;;25.40;96.70;;;;;;4988839;28;20484;-80
2022/09/12 09:38:07;;;;;;;2.28;1.10;;;25.40;96.70;;;;;;4952690;28;20523;-80
2022/09/12 09:40:45;;;;;;;3.25;1.27;;;25.50;96.70;;;;;;4999318;28;20054;-80
2022/09/12 09:43:21;;;;;;;3.00;1.02;;;25.60;96.70;;;;;;4987415;28;20046;-79
2022/09/12 09:45:50;;;;;;;3.42;1.40;;;25.70;96.70;;;;;;4993805;28;20059;-81
2022/09/12 09:48:22;;;;;;;3.53;1.20;;;25.90;96.70;;;;;;4999530;28;20504;-80
2022/09/12 09:50:52;;;;;;;4.65;1.30;;;26.10;96.70;;;;;;4992779;28;20050;-79
2022/09/12 09:53:32;;;;;;;3.45;1.00;;;26.10;96.70;;;;;;4972056;28;20049;-80
2022/09/12 09:56:06;;;;;;;2.70;1.20;;;26.30;96.70;;;;;;5045483;28;20494;-80
2022/09/12 09:58:35;;;;;;;4.40;1.33;;;26.20;96.70;;;;;;5046669;28;20094;-80
2022/09/12 10:01:05;;;;;;;4.05;1.17;;;26.40;96.70;;;;;;5043372;28;20041;-79
2022/09/12 10:03:36;;;;;;;3.17;1.10;;;26.60;96.70;;;;;;5028117;28;20061;-80
2022/09/12 10:06:25;;;;;;;4.10;1.10;;;26.60;96.70;;;;;;5024374;28;20145;-79
2022/09/12 10:09:06;;;;;;;1.65;1.02;;;26.60;96.70;;;;;;5043380;28;20053;-81
2022/09/12 10:11:35;;;;;;;3.00;1.25;;;26.70;96.70;;;;;;5043923;28;20583;-79
2022/09/12 10:14:03;;;;;;;3.42;1.30;;;26.70;96.70;;;;;;5045181;28;20112;-79
2022/09/12 10:16:33;;;;;;;4.18;1.45;;;26.80;96.70;;;;;;5039081;28;20037;-79
2022/09/12 10:19:02;;;;;;;4.00;1.30;;;27.00;96.70;;;;;;5041616;28;20061;-81
2022/09/12 10:21:38;;;;;;;2.50;1.05;;;27.00;96.70;;;;;;5039988;28;20048;-79
2022/09/12 10:24:20;;;;;;;2.13;1.20;;;27.10;96.70;;;;;;5026051;28;20466;-79
2022/09/12 10:26:53;;;;;;;4.10;1.13;;;27.30;96.70;;;;;;5045049;28;20433;-79
2022/09/12 10:29:26;;;;;;;4.60;1.33;;;27.50;96.70;;;;;;5042689;28;20127;-80
2022/09/12 10:31:58;;;;;;;4.65;1.48;;;27.60;96.70;;;;;;5045558;28;20810;-79
2022/09/12 10:34:33;;;;;;;3.00;0.90;;;27.80;96.70;;;;;;5045020;28;20041;-79
2022/09/12 10:37:07;;;;;;;3.05;1.05;;;27.80;96.70;;;;;;5045293;28;20094;-79
2022/09/12 10:39:38;;;;;;;4.38;1.10;;;27.90;96.70;;;;;;5037457;28;20060;-79
2022/09/12 10:42:13;;;;;;;3.50;1.00;;;27.80;96.70;;;;;;5044479;28;20522;-80
2022/09/12 10:44:55;;;;;;;3.30;2.10;;;27.80;96.70;;;;;;5040355;28;20111;-80
2022/09/12 10:47:30;;;;;;;4.35;1.25;;;27.80;96.70;;;;;;5044294;28;20049;-79
2022/09/12 10:50:22;;;;;;;3.47;1.30;;;28.00;96.70;;;;;;5025178;28;20056;-79
2022/09/12 10:52:52;;;;;;;3.55;1.33;;;28.00;96.70;;;;;;5042088;28;20048;-79
2022/09/12 10:55:33;;;;;;;2.17;0.90;;;28.20;96.70;;;;;;5043461;28;20059;-79
2022/09/12 10:58:20;;;;;;;4.07;1.00;;;28.30;96.70;;;;;;5057398;28;20120;-79
2022/09/12 11:00:54;;;;;;;;;;;28.50;96.70;;;;;;5042536;28;20399;-79
2022/09/12 11:03:39;;;;;;;2.55;0.82;;;28.70;96.70;;;;;;5037234;28;19928;-79
2022/09/12 11:06:12;;;;;;;4.22;1.00;;;28.80;96.70;;;;;;5043376;28;20053;-81
2022/09/12 11:08:54;;;;;;;2.85;1.08;;;28.90;96.70;;;;;;5040708;28;20414;-79
2022/09/12 11:11:49;;;;;;;4.15;1.02;;;28.80;96.70;;;;;;5040764;28;20079;-79
2022/09/12 11:14:31;;;;;;;3.13;1.00;;;28.80;96.70;;;;;;5042504;28;20126;-81
2022/09/12 11:17:10;;;;;;;1.90;0.57;;;28.90;96.70;;;;;;5042883;28;20056;-80
2022/09/12 11:19:58;;;;;;;4.70;0.95;;;29.10;96.70;;;;;;5043665;28;20124;-79
2022/09/12 11:23:10;;;;;;;3.70;1.02;;;29.10;96.70;;;;;;5042016;28;20053;-80
2022/09/12 11:25:50;;;;;;;3.92;1.33;;;29.20;96.70;;;;;;5040331;28;20044;-79
2022/09/12 11:28:34;;;;;;;2.45;0.85;;;29.40;96.70;;;;;;5042463;28;20122;-79
2022/09/12 11:31:25;;;;;;;2.30;0.73;;;29.50;96.70;;;;;;5042941;28;20511;-79
2022/09/12 11:33:58;;;;;;;3.03;1.05;;;29.50;96.70;;;;;;5047438;28;20510;-79
2022/09/12 11:36:34;;;;;;;4.60;1.10;;;29.60;96.70;;;;;;5035735;28;20041;-81
2022/09/12 11:39:13;;;;;;;1.23;0.63;;;29.60;96.70;;;;;;5038087;28;20053;-79
2022/09/12 11:41:50;;;;;;;1.63;0.65;;;29.60;96.70;;;;;;5010226;28;20053;-79
2022/09/12 11:44:24;;;;;;;2.42;0.95;;;29.70;96.70;;;;;;5038849;28;20052;-79
2022/09/12 11:46:54;;;;;;;1.98;0.73;;;29.80;96.70;;;;;;5041382;28;20051;-79
2022/09/12 11:49:30;;;;;;;2.95;1.05;;;29.90;96.70;;;;;;5044584;28;20045;-78
2022/09/12 11:52:11;;;;;;;5.72;1.02;;;29.80;96.70;;;;;;5041709;28;20049;-77
2022/09/12 11:54:46;;;;;;;2.13;0.77;;;29.80;96.70;;;;;;5035733;28;20053;-78
2022/09/12 11:57:29;;;;;;;3.13;0.80;;;30.00;96.70;;;;;;5044325;28;20569;-78
2022/09/12 12:00:01;;;;;;;2.83;0.80;;;30.10;96.70;;;;;;5043187;28;20570;-77
2022/09/12 12:02:38;;;;;;;3.10;0.80;;;30.10;96.70;;;;;;5044007;28;20052;-78
2022/09/12 12:05:23;;;;;;;3.67;0.65;;;30.30;96.70;;;;;;5042026;28;20465;-78
2022/09/12 12:07:56;;;;;;;2.85;0.70;;;30.40;96.70;;;;;;5040495;28;20049;-78
2022/09/12 12:10:30;;;;;;;4.60;1.00;;;30.40;96.70;;;;;;5041630;28;20041;-78
2022/09/12 12:13:02;;;;;;;2.50;0.82;;;30.40;96.70;;;;;;5036369;28;20395;-78
2022/09/12 12:15:31;;;;;;;2.90;0.85;;;30.40;96.70;;;;;;5034590;28;20048;-78
2022/09/12 12:18:02;;;;;;;2.83;0.80;;;30.50;96.70;;;;;;5043851;28;20053;-78
2022/09/12 12:20:31;;;;;;;1.88;0.50;;;30.50;96.70;;;;;;5039794;28;20048;-77
2022/09/12 12:22:59;;;;;;;1.85;0.55;;;30.60;96.70;;;;;;5044075;28;20037;-78
2022/09/12 12:25:49;;;;;;;3.35;0.60;;;30.70;96.70;;;;;;5037126;28;20064;-80
2022/09/12 12:28:51;;;;;;;1.77;0.60;;;30.80;96.70;;;;;;5040135;28;20124;-78
2022/09/12 12:31:20;;;;;;;2.30;0.60;;;30.90;96.70;;;;;;5041119;28;20063;-78
2022/09/12 12:34:01;;;;;;;2.15;0.68;;;31.10;96.70;;;;;;5040069;28;20053;-78
2022/09/12 12:36:33;;;;;;;2.67;0.77;;;31.20;96.70;;;;;;5042643;28;20056;-79
2022/09/12 12:39:49;;;;;;;2.30;0.50;;;31.00;96.70;;;;;;5039465;28;20049;-79
2022/09/12 12:43:00;;;;;;;4.28;0.73;;;31.10;96.70;;;;;;5043647;28;20516;-78
2022/09/12 12:45:48;;;;;;;3.33;0.90;;;31.20;96.70;;;;;;5033104;28;20136;-78
2022/09/12 12:48:19;;;;;;;2.45;0.50;;;31.10;96.70;;;;;;5034023;28;20065;-78
2022/09/12 12:50:47;;;;;;;1.77;0.60;;;31.20;96.70;;;;;;5042358;28;20043;-78
2022/09/12 12:53:21;;;;;;;2.20;0.70;;;31.30;96.70;;;;;;5039511;28;20072;-78
2022/09/12 12:55:51;;;;;;;1.90;0.52;;;31.10;96.70;;;;;;5040372;28;20597;-78
2022/09/12 12:58:30;;;;;;;2.47;0.65;;;31.10;96.70;;;;;;5040673;28;20048;-78
2022/09/12 13:01:12;;;;;;;2.20;0.60;;;31.20;96.70;;;;;;5058449;28;20048;-78
2022/09/12 13:03:44;;;;;;;2.33;1.15;;;31.20;96.70;;;;;;5036556;28;20049;-77
2022/09/12 13:06:29;;;;;;;4.35;0.73;;;31.30;96.70;;;;;;5038253;28;20144;-79
2022/09/12 13:09:01;;;;;;;3.13;0.80;;;31.40;96.70;;;;;;5038549;28;21186;-78
2022/09/12 13:11:32;;;;;;;1.70;0.52;;;31.50;96.70;;;;;;5040516;28;20399;-80
2022/09/12 13:14:48;;;;;;;4.60;1.00;;;31.60;96.70;;;;;;5032610;28;20044;-78
2022/09/12 13:17:24;;;;;;;1.92;0.55;;;31.50;96.70;;;;;;5039845;28;20132;-79
2022/09/12 13:20:01;;;;;;;0.98;0.52;;;31.50;96.70;;;;;;5041934;28;20060;-79
2022/09/12 13:22:50;;;;;;;2.97;0.63;;;31.60;96.70;;;;;;5036071;28;20045;-78
2022/09/12 13:25:25;;;;;;;3.08;0.73;;;31.60;96.70;;;;;;5043265;28;20506;-79